createdAt,value
2016-03-02T14:36:27.372Z,82.84
2016-03-02T14:37:27.390Z,82.74
2016-03-02T14:38:27.408Z,82.74
2016-03-02T14:39:27.443Z,83.12
2016-03-02T14:40:27.430Z,83.31
2016-03-02T14:41:27.698Z,83.97
2016-03-02T14:42:27.482Z,82.84
2016-03-02T14:43:27.719Z,82.84
2016-03-02T14:44:27.518Z,81.32
2016-03-02T14:45:27.522Z,80.46
2016-03-02T14:46:40.509Z,80.75
2016-03-02T14:47:46.636Z,79.71
2016-03-02T14:48:27.623Z,78.85
2016-03-02T14:49:53.275Z,79.42
2016-03-02T14:50:27.622Z,78.95
2016-03-02T14:51:53.312Z,77.9
2016-03-02T14:52:40.408Z,78.95
2016-03-02T14:54:43.711Z,76.9
2016-03-02T14:56:37.388Z,77.75
2016-03-02T14:57:37.374Z,76.71
2016-03-02T14:58:37.363Z,75.67
2016-03-02T14:59:37.395Z,75.09
2016-03-02T15:00:37.414Z,75.67
2016-03-02T15:01:37.448Z,75.09
2016-03-02T15:02:37.420Z,74.52
2016-03-02T15:03:50.454Z,74.15
2016-03-02T15:04:43.831Z,74.9
2016-03-02T15:05:56.701Z,74.15
2016-03-02T15:06:50.234Z,74.43
2016-03-02T15:08:08.865Z,74.71
2016-03-02T15:08:37.584Z,74.9
2016-03-02T15:09:37.603Z,74.9
2016-03-02T15:10:37.839Z,74.62
2016-03-02T15:11:37.576Z,73.96
2016-03-02T15:12:37.626Z,74.9
2016-03-02T15:13:37.629Z,75.67
2016-03-02T15:14:38.242Z,76.32
2016-03-02T15:15:50.416Z,75.95
2016-03-02T15:16:50.418Z,75.43
2016-03-02T15:17:38.515Z,74.96
2016-03-02T15:19:03.408Z,75.53
2016-03-02T15:19:40.958Z,76.32
2016-03-02T15:20:37.819Z,75.76
2016-03-02T15:22:03.463Z,77.05
2016-03-02T15:22:50.528Z,76.9
2016-03-02T15:23:37.797Z,75.47
2016-03-02T15:24:57.018Z,74.43
2016-03-02T15:25:40.911Z,76.52
2016-03-02T15:26:50.586Z,76.04
2016-03-02T15:27:50.588Z,74.62
2016-03-02T15:28:50.826Z,74.71
2016-03-02T15:29:51.235Z,75.09
2016-03-02T15:30:50.877Z,75.76
2016-03-02T15:32:03.396Z,74.9
2016-03-02T15:33:03.399Z,73.71
2016-03-02T15:34:16.388Z,73.23
2016-03-02T15:35:03.685Z,73.9
2016-03-02T15:36:16.457Z,74.75
2016-03-02T15:37:00.441Z,74.47
2016-03-02T15:38:26.134Z,73.04
2016-03-02T15:39:10.012Z,72.47
2016-03-02T15:42:52.176Z,71.14
2016-03-02T15:44:04.787Z,71.04
2016-03-02T15:44:48.697Z,70.67
2016-03-02T15:45:48.731Z,70.29
2016-03-02T15:46:48.750Z,72.38
2016-03-02T15:47:48.736Z,73.04
2016-03-02T15:48:49.005Z,72.09
2016-03-02T15:49:48.773Z,72.19
2016-03-02T15:51:01.542Z,72.85
2016-03-02T15:51:49.091Z,73.14
2016-03-02T15:52:49.125Z,73.52
2016-03-02T15:53:48.878Z,74.47
2016-03-02T15:54:48.849Z,74.05
2016-03-02T15:55:48.883Z,74.52
2016-03-02T15:57:01.620Z,74.15
2016-03-02T15:57:48.920Z,74.05
2016-03-02T15:59:14.578Z,75.38
2016-03-02T16:00:01.753Z,75.85
2016-03-02T16:00:58.631Z,76.39
2016-03-02T16:01:58.743Z,76.86
2016-03-02T16:02:58.730Z,77.71
2016-03-02T16:03:58.827Z,77.9
2016-03-02T16:04:58.688Z,80.18
2016-03-02T16:05:58.566Z,78.85
2016-03-02T16:06:58.679Z,79.8
2016-03-02T16:07:58.681Z,78.66
2016-03-02T16:08:58.652Z,78.38
2016-03-02T16:09:58.640Z,78.19
2016-03-02T16:10:58.923Z,78.95
2016-03-02T16:11:58.692Z,79.04
2016-03-02T16:12:58.710Z,78.09
2016-03-02T16:13:58.823Z,78
2016-03-02T16:14:58.965Z,76.9
2016-03-02T16:15:58.781Z,77.56
2016-03-02T16:16:58.784Z,76.9
2016-03-02T16:17:58.770Z,75.57
2016-03-02T16:18:58.788Z,74.81
2016-03-02T16:19:58.964Z,76.23
2016-03-02T16:20:58.826Z,76.9
2016-03-02T16:21:58.828Z,76.95
2016-03-02T16:22:58.893Z,76.57
2016-03-02T16:23:58.895Z,76.01
2016-03-02T16:24:58.977Z,76.57
2016-03-02T16:26:11.932Z,77.81
2016-03-02T16:27:11.669Z,75.91
2016-03-02T16:27:58.938Z,76.1
2016-03-02T16:28:59.269Z,75.15
2016-03-02T16:29:59.208Z,76.29
2016-03-02T16:30:59.039Z,77.05
2016-03-02T16:31:59.027Z,76.82
2016-03-02T16:32:59.013Z,77.05
2016-03-02T16:33:59.110Z,77.48
2016-03-02T16:34:59.113Z,77.58
2016-03-02T16:35:59.585Z,78.15
2016-03-02T16:36:59.103Z,79.76
2016-03-02T16:37:59.137Z,80.43
2016-03-02T16:39:11.874Z,79.76
2016-03-02T16:39:59.329Z,79.76
2016-03-02T16:40:59.176Z,79.28
2016-03-02T16:41:59.273Z,79.47
2016-03-02T16:42:59.212Z,79.28
2016-03-02T16:43:59.293Z,79.66
2016-03-02T16:44:59.249Z,78.87
2016-03-02T16:45:59.299Z,79.25
2016-03-02T16:46:59.551Z,78.49
2016-03-02T16:47:59.523Z,78.96
2016-03-02T16:48:59.167Z,78.11
2016-03-02T16:49:59.387Z,78.11
2016-03-02T16:50:59.750Z,77.48
2016-03-02T16:52:05.612Z,76.59
2016-03-02T16:52:59.677Z,76.21
2016-03-02T16:53:59.383Z,76.15
2016-03-02T16:54:59.401Z,76.25
2016-03-02T16:55:59.404Z,76.34
2016-03-02T16:56:59.907Z,75.68
2016-03-02T16:57:59.644Z,75.49
2016-03-02T16:58:59.506Z,75.78
2016-03-02T16:59:59.572Z,75.68
2016-03-02T17:00:59.495Z,75.78
2016-03-02T17:02:00.044Z,75.68
2016-03-02T17:02:59.532Z,75.11
2016-03-02T17:03:59.535Z,75.68
2016-03-02T17:04:59.585Z,75.96
2016-03-02T17:05:59.602Z,76.34
2016-03-02T17:06:59.590Z,76.63
2016-03-02T17:07:59.858Z,76.92
2016-03-02T17:08:59.657Z,76.82
2016-03-02T17:09:59.645Z,76.82
2016-03-02T17:11:12.414Z,77.2
2016-03-02T17:11:59.681Z,76.82
2016-03-02T17:13:18.902Z,77.48
2016-03-02T17:14:06.202Z,77.2
2016-03-02T17:15:31.036Z,78.15
2016-03-02T17:16:09.365Z,78.39
2016-03-02T17:17:40.698Z,78.96
2016-03-02T17:18:19.151Z,78.67
2016-03-02T17:20:28.796Z,79.91
2016-03-02T17:21:28.987Z,79.82
2016-03-02T17:22:28.834Z,80.29
2016-03-02T17:23:28.774Z,80.67
2016-03-02T17:24:28.823Z,81.05
2016-03-02T17:25:28.810Z,81.71
2016-03-02T17:26:28.860Z,82.05
2016-03-02T17:27:28.925Z,83
2016-03-02T17:28:28.865Z,82.9
2016-03-02T17:29:28.993Z,83.18
2016-03-02T17:30:28.887Z,83.47
2016-03-02T17:31:30.201Z,83.85
2016-03-02T17:32:28.954Z,84.13
2016-03-02T17:33:41.741Z,84.51
2016-03-02T17:34:28.959Z,84.99
2016-03-02T17:35:29.056Z,85.08
2016-03-02T17:36:29.231Z,84.89
2016-03-02T17:37:29.014Z,85.27
2016-03-02T17:38:41.738Z,85.55
2016-03-02T17:39:41.897Z,85.17
2016-03-02T17:40:29.054Z,85.36
2016-03-02T17:41:48.543Z,85.27
2016-03-02T17:42:29.137Z,85.55
2016-03-02T17:43:29.108Z,85.74
2016-03-02T17:44:29.135Z,85.74
2016-03-02T17:45:29.141Z,85.84
2016-03-02T17:46:30.555Z,85.36
2016-03-02T17:47:29.313Z,84.8
2016-03-02T17:48:29.366Z,84.89
2016-03-02T17:49:29.178Z,85.65
2016-03-02T17:50:29.207Z,86.69
2016-03-02T17:51:29.160Z,86.5
2016-03-02T17:52:42.158Z,86.79
2016-03-02T17:53:41.907Z,86.69
2016-03-02T17:54:54.909Z,86.79
2016-03-02T17:55:29.206Z,85.93
2016-03-02T17:56:29.223Z,86.03
2016-03-02T17:57:29.334Z,86.22
2016-03-02T17:58:29.241Z,86.12
2016-03-02T17:59:29.353Z,85.55
2016-03-02T18:00:29.262Z,85.55
2016-03-02T18:01:29.342Z,85.08
2016-03-02T18:02:29.297Z,84.8
2016-03-02T18:03:29.299Z,85.46
2016-03-02T18:04:29.348Z,84.89
2016-03-02T18:05:29.351Z,84.51
2016-03-02T18:06:29.431Z,84.61
2016-03-02T18:07:29.371Z,83.94
2016-03-02T18:08:29.249Z,83.66
2016-03-02T18:09:42.391Z,83.18
2016-03-02T18:10:29.426Z,83
2016-03-02T18:11:55.103Z,83.37
2016-03-02T18:12:29.463Z,83.56
2016-03-02T18:13:29.466Z,83.66
2016-03-02T18:14:29.780Z,83.85
2016-03-02T18:15:29.549Z,84.04
2016-03-02T18:16:29.567Z,84.32
2016-03-02T18:17:29.523Z,84.42
2016-03-02T18:18:29.526Z,84.7
2016-03-02T18:19:29.559Z,84.89
2016-03-02T18:20:29.593Z,84.8
2016-03-02T18:21:29.627Z,84.51
2016-03-02T18:22:29.599Z,84.42
2016-03-02T18:23:29.617Z,84.04
2016-03-02T18:24:29.650Z,84.23
2016-03-02T18:25:29.637Z,84.51
2016-03-02T18:26:29.672Z,84.42
2016-03-02T18:27:29.706Z,84.8
2016-03-02T18:28:29.740Z,85.84
2016-03-02T18:29:29.946Z,85.84
2016-03-02T18:30:29.745Z,86.03
2016-03-02T18:31:36.014Z,86.22
2016-03-02T18:32:29.750Z,86.31
2016-03-02T18:33:48.988Z,86.79
2016-03-02T18:34:29.818Z,86.98
2016-03-02T18:35:55.496Z,87.35
2016-03-02T18:36:29.824Z,87.4
2016-03-02T18:38:01.361Z,87.98
2016-03-02T18:38:36.142Z,87.4
2016-03-02T18:39:29.879Z,88.54
2016-03-02T18:40:29.882Z,88.64
2016-03-02T18:41:29.899Z,88.92
2016-03-02T18:42:30.027Z,89.3
2016-03-02T18:43:42.671Z,90.06
2016-03-02T18:44:30.080Z,89.77
2016-03-02T18:45:29.958Z,90.34
2016-03-02T18:46:30.101Z,90.15
2016-03-02T18:47:29.979Z,90.34
2016-03-02T18:48:29.996Z,90.91
2016-03-02T18:49:30.062Z,91.29
2016-03-02T18:50:42.814Z,91.19
2016-03-02T18:51:30.051Z,91.19
2016-03-02T18:52:30.070Z,91.86
2016-03-02T18:53:30.322Z,91.76
2016-03-02T18:54:30.090Z,92.24
2016-03-02T18:55:30.172Z,91.76
2016-03-02T18:56:30.159Z,92.05
2016-03-02T18:57:30.223Z,91.67
2016-03-02T18:58:42.898Z,91.48
2016-03-02T18:59:30.228Z,91.86
2016-03-02T19:00:49.403Z,92.52
2016-03-02T19:01:30.297Z,92.43
2016-03-02T19:02:30.269Z,92.24
2016-03-02T19:03:30.475Z,92.61
2016-03-02T19:04:42.977Z,92.9
2016-03-02T19:05:30.308Z,92.8
2016-03-02T19:06:56.261Z,93.46
2016-03-02T19:07:40.277Z,93.46
2016-03-02T19:08:59.752Z,92.99
2016-03-02T19:09:40.470Z,92.99
2016-03-02T19:11:49.819Z,93.37
2016-03-02T19:12:49.822Z,93.84
2016-03-02T19:13:49.856Z,93.65
2016-03-02T19:14:49.921Z,93.46
2016-03-02T19:15:49.924Z,93.08
2016-03-02T19:16:49.988Z,92.8
2016-03-02T19:17:49.913Z,92.71
2016-03-02T19:18:50.135Z,92.52
2016-03-02T19:19:49.950Z,92.05
2016-03-02T19:21:09.143Z,91.29
2016-03-02T19:21:50.018Z,90.95
2016-03-02T19:23:15.867Z,90.48
2016-03-02T19:24:00.042Z,90.01
2016-03-02T19:25:00.295Z,90.29
2016-03-02T19:26:00.110Z,90.2
2016-03-02T19:27:00.018Z,90.01
2016-03-02T19:28:00.428Z,90.1
2016-03-02T19:29:00.055Z,89.06
2016-03-02T19:30:00.074Z,89.63
2016-03-02T19:31:00.061Z,89.34
2016-03-02T19:32:00.126Z,90.1
2016-03-02T19:33:00.425Z,90.01
2016-03-02T19:34:00.147Z,89.72
2016-03-02T19:35:00.165Z,90.1
2016-03-02T19:36:00.152Z,90.2
2016-03-02T19:37:00.233Z,89.34
2016-03-02T19:38:00.251Z,90.1
2016-03-02T19:39:00.208Z,89.34
2016-03-02T19:40:00.225Z,90.2
2016-03-02T19:41:00.322Z,90.39
2016-03-02T19:42:00.278Z,90.29
2016-03-02T19:43:00.296Z,90.48
2016-03-02T19:44:00.533Z,90.48
2016-03-02T19:45:00.786Z,91.33
2016-03-02T19:46:00.367Z,90.95
2016-03-02T19:47:13.057Z,91.33
2016-03-02T19:48:00.324Z,91.29
2016-03-02T19:49:26.062Z,91.86
2016-03-02T19:50:10.315Z,91.95
2016-03-02T19:51:10.365Z,92.61
2016-03-02T19:52:10.368Z,93.08
2016-03-02T19:53:10.339Z,92.8
2016-03-02T19:54:10.341Z,93.18
2016-03-02T19:55:10.438Z,93.84
2016-03-02T19:56:10.393Z,94.23
2016-03-02T19:57:10.537Z,94.23
2016-03-02T19:58:11.086Z,94.23
2016-03-02T19:59:10.496Z,94.89
2016-03-02T20:00:10.498Z,95.26
2016-03-02T20:01:10.547Z,95.07
2016-03-02T20:02:10.690Z,95.64
2016-03-02T20:03:10.568Z,95.97
2016-03-02T20:04:10.353Z,95.59
2016-03-02T20:05:10.559Z,95.5
2016-03-02T20:06:10.873Z,95.45
2016-03-02T20:07:10.720Z,95.69
2016-03-02T20:08:10.676Z,95.69
2016-03-02T20:09:10.663Z,95.45
2016-03-02T20:10:10.650Z,95.17
2016-03-02T20:11:10.637Z,95.07
2016-03-02T20:12:10.671Z,94.7
2016-03-02T20:13:10.689Z,94.79
2016-03-02T20:14:10.660Z,94.23
2016-03-02T20:15:10.758Z,94.23
2016-03-02T20:16:10.916Z,93.37
2016-03-02T20:17:10.746Z,92.99
2016-03-02T20:18:17.094Z,93.27
2016-03-02T20:19:10.752Z,92.9
2016-03-02T20:20:10.771Z,93.27
2016-03-02T20:21:10.789Z,92.9
2016-03-02T20:22:10.791Z,92.9
2016-03-02T20:23:10.794Z,92.8
2016-03-02T20:24:11.094Z,92.9
2016-03-02T20:25:14.502Z,92.9
2016-03-02T20:26:40.240Z,92.71
2016-03-02T20:27:49.993Z,92.9
2016-03-02T20:28:34.074Z,92.8
2016-03-02T20:29:34.107Z,93.08
2016-03-02T20:31:37.190Z,92.99
2016-03-02T20:32:34.210Z,93.27
2016-03-02T20:34:00.090Z,93.65
2016-03-02T20:34:44.152Z,93.94
2016-03-02T20:36:03.470Z,93.37
2016-03-02T20:37:59.803Z,93.94
2016-03-02T20:38:59.837Z,93.94
2016-03-02T20:40:31.106Z,93.46
2016-03-02T20:41:34.889Z,94.04
2016-03-02T20:42:15.783Z,94.13
2016-03-02T20:43:41.380Z,93.84
2016-03-02T20:44:51.194Z,94.04
2016-03-02T20:45:25.525Z,94.13
2016-03-02T20:48:06.518Z,94.04
2016-03-02T20:48:41.393Z,93.56
2016-03-02T20:51:21.822Z,92.9
2016-03-02T20:51:56.166Z,92.52
2016-03-02T20:53:27.452Z,92.52
2016-03-02T20:54:06.127Z,91.95
2016-03-02T20:56:21.290Z,91.14
2016-03-02T20:57:21.323Z,91.05
2016-03-02T20:58:21.498Z,90.39
2016-03-02T20:59:34.048Z,90.39
2016-03-02T21:00:21.316Z,89.72
2016-03-02T21:01:21.428Z,89.91
2016-03-02T21:02:21.368Z,90.01
2016-03-02T21:03:21.354Z,89.53
2016-03-02T21:04:21.607Z,89.53
2016-03-02T21:05:21.423Z,88.59
2016-03-02T21:06:34.159Z,89.15
2016-03-02T21:07:22.834Z,88.87
2016-03-02T21:08:40.479Z,88.78
2016-03-02T21:09:24.481Z,88.68
2016-03-02T21:10:47.156Z,88.59
2016-03-02T21:11:40.720Z,88.59
2016-03-02T21:12:55.925Z,87.64
2016-03-02T21:13:43.867Z,87.45
2016-03-02T21:17:34.549Z,87.92
2016-03-02T21:19:05.836Z,87.07
2016-03-02T21:19:50.039Z,86.6
2016-03-02T21:20:49.995Z,86.5
2016-03-02T21:21:50.013Z,86.98
2016-03-02T21:23:02.827Z,86.12
2016-03-02T21:24:02.862Z,85.88
2016-03-02T21:25:15.758Z,86.74
2016-03-02T21:26:09.402Z,85.93
2016-03-02T21:27:24.982Z,86.22
2016-03-02T21:28:25.063Z,86.6
2016-03-02T21:29:37.488Z,87.16
2016-03-02T21:30:25.349Z,86.79
2016-03-02T21:31:44.009Z,86.79
2016-03-02T21:32:24.807Z,86.79
2016-03-02T21:33:50.483Z,87.26
2016-03-02T21:35:00.032Z,87.26
2016-03-02T21:35:34.395Z,86.88
2016-03-02T21:38:20.996Z,87.26
2016-03-02T21:38:49.590Z,87.07
2016-03-02T21:39:49.608Z,87.54
2016-03-02T21:41:02.361Z,87.73
2016-03-02T21:41:49.628Z,88.02
2016-03-02T21:43:08.869Z,88.4
2016-03-02T21:43:52.728Z,88.78
2016-03-02T21:45:11.968Z,88.96
2016-03-02T21:46:30.189Z,89.63
2016-03-02T21:47:27.177Z,90.29
2016-03-02T21:48:27.211Z,90.15
2016-03-02T21:49:27.213Z,91
2016-03-02T21:50:39.950Z,91.29
2016-03-02T21:51:27.234Z,91
2016-03-02T21:52:46.440Z,91.57
2016-03-02T21:53:30.334Z,91.95
2016-03-02T21:54:49.524Z,91.67
2016-03-02T21:57:14.266Z,92.43
2016-03-02T21:58:45.549Z,92.33
2016-03-02T21:59:15.693Z,92.05
2016-03-02T22:01:23.824Z,92.43
2016-03-02T22:03:30.110Z,92.24
2016-03-02T22:04:23.878Z,91.57
2016-03-02T22:05:23.913Z,91.19
2016-03-02T22:06:23.899Z,91.38
2016-03-02T22:07:23.917Z,91.1
2016-03-02T22:08:23.921Z,91.1
2016-03-02T22:09:23.939Z,90.91
2016-03-02T22:10:23.942Z,90.91
2016-03-02T22:11:23.960Z,91
2016-03-02T22:12:23.994Z,90.91
2016-03-02T22:13:24.012Z,90.44
2016-03-02T22:14:24.062Z,90.34
2016-03-02T22:15:24.033Z,91.1
2016-03-02T22:16:24.067Z,90.81
2016-03-02T22:17:24.054Z,91.38
2016-03-02T22:18:24.150Z,91
2016-03-02T22:19:24.075Z,91.29
2016-03-02T22:20:24.109Z,92.05
2016-03-02T22:21:24.128Z,92.24
2016-03-02T22:22:24.161Z,92.52
2016-03-02T22:23:24.149Z,92.52
2016-03-02T22:24:24.182Z,92.52
2016-03-02T22:25:24.185Z,92.43
2016-03-02T22:26:36.937Z,93.18
2016-03-02T22:27:24.206Z,93.18
2016-03-02T22:28:24.255Z,92.9
2016-03-02T22:29:24.243Z,92.99
2016-03-02T22:30:24.261Z,93.27
2016-03-02T22:31:36.998Z,93.27
2016-03-02T22:32:24.266Z,93.56
2016-03-02T22:33:24.316Z,93.65
2016-03-02T22:34:24.318Z,93.94
2016-03-02T22:35:24.321Z,93.27
2016-03-02T22:36:37.074Z,93.37
2016-03-02T22:37:24.358Z,93.46
2016-03-02T22:38:43.595Z,93.65
2016-03-02T22:39:24.395Z,94.23
2016-03-02T22:40:50.070Z,93.75
2016-03-02T22:41:30.775Z,93.18
2016-03-02T22:43:37.171Z,93.27
2016-03-02T22:44:24.486Z,93.27
2016-03-02T22:45:30.740Z,94.37
2016-03-02T22:46:24.476Z,93.46
2016-03-02T22:47:43.697Z,93.56
2016-03-02T22:48:27.545Z,93.46
2016-03-02T22:49:53.234Z,93.61
2016-03-02T22:51:08.439Z,94.46
2016-03-02T22:52:27.648Z,93.99
2016-03-02T22:53:11.525Z,93.99
2016-03-02T22:54:37.279Z,93.89
2016-03-02T22:55:12.985Z,94.18
2016-03-02T22:56:42.941Z,93.8
2016-03-02T22:57:52.491Z,93.99
2016-03-02T22:58:27.102Z,94.08
2016-03-02T22:59:26.824Z,93.89
2016-03-02T23:00:26.841Z,94.18
2016-03-02T23:01:39.579Z,94.08
2016-03-02T23:02:26.894Z,95.03
2016-03-02T23:03:52.553Z,94.56
2016-03-02T23:04:36.446Z,95.4
2016-03-02T23:06:02.168Z,94.74
2016-03-02T23:06:36.483Z,95.12
2016-03-02T23:07:36.502Z,96.07
2016-03-02T23:08:36.504Z,95.69
2016-03-02T23:09:36.506Z,95.97
2016-03-02T23:10:36.541Z,95.78
2016-03-02T23:11:49.121Z,96.45
2016-03-02T23:12:36.609Z,96.07
2016-03-02T23:13:55.768Z,96.64
2016-03-02T23:14:36.598Z,96.59
2016-03-02T23:16:02.319Z,96.78
2016-03-02T23:16:36.619Z,96.97
2016-03-02T23:18:08.544Z,97.34
2016-03-02T23:18:46.812Z,96.97
2016-03-02T23:20:46.834Z,97.53
2016-03-02T23:21:46.867Z,98.01
2016-03-02T23:22:46.870Z,97.53
2016-03-02T23:23:59.622Z,97.44
2016-03-02T23:24:47.031Z,97.53
2016-03-02T23:26:06.175Z,97.72
2016-03-02T23:26:47.536Z,98.01
2016-03-02T23:28:56.682Z,98.01
2016-03-02T23:29:59.655Z,97.91
2016-03-02T23:31:09.486Z,98.2
2016-03-02T23:32:19.021Z,98.29
2016-03-02T23:33:19.118Z,98.86
2016-03-02T23:35:22.296Z,98.39
2016-03-02T23:36:22.313Z,98.48
2016-03-02T23:39:08.804Z,98.58
2016-03-02T23:39:37.510Z,98.48
2016-03-02T23:40:37.527Z,98.48
2016-03-02T23:41:50.280Z,99.05
2016-03-02T23:42:37.549Z,99.24
2016-03-02T23:43:56.817Z,99.33
2016-03-02T23:44:37.570Z,99.43
2016-03-02T23:46:34.575Z,99.33
2016-03-02T23:46:47.747Z,99.43
2016-03-02T23:49:02.956Z,99.52
2016-03-02T23:50:02.973Z,99.62
2016-03-02T23:51:15.714Z,99.99
2016-03-02T23:52:02.995Z,99.99
2016-03-02T23:53:28.703Z,99.99
2016-03-02T23:54:15.769Z,99.99
2016-03-02T23:56:55.992Z,99.99
2016-03-02T23:57:36.792Z,99.99
2016-03-02T23:58:36.810Z,99.99
2016-03-02T23:59:46.345Z,99.99
